KAPAKLAM

Guest
Details From KAPA - CENTENNIAL
To KLAM - LOS ALAMOS
Flight Number -
Tags generated
Created
Modified
Stats Distance 232 nm / 430 km
Max Altitude 28,200 ft / 8,595 m
Waypoints 4
Social Downloads 0
Likes 0
Share VATSIM

Download

Looking for another format? Having issues loading an existing format? Contact us
Advertisement - Login to hide

Notes

Basic altitude profile: - Ascent Rate: 2500ft/min - Ascent Speed: 250kts - Cruise Altitude: 35000ft - Cruise Speed: 420kts - Descent Rate: 1500ft/min - Descent Speed: 250kts Options: - Use NATs: yes - Use PACOTS: yes - Use low airways: yes - Use high airways: yes

Route

KAPA BINKE J13 ALS KLAM

ID Type Via Altitude Latitude Longitude Leg Dist Tot Dist Heading (true) Name
O KAPA APT - 0 ft / 0 m 39.57012˚ -104.84813˚ - 0 nm - CENTENNIAL
BINKE FIX - 28,200 ft / 8,595 m 38.00711˚ -105.59267˚ 100 nm 100 nm 201° / 200° -
ALS VOR J13 (AWY-HI) 22,000 ft / 6,706 m 37.34917˚ -105.81553˚ 40 nm 141 nm 195° / 195° ALAMOSA VORTAC
O KLAM APT - 0 ft / 0 m 35.87981˚ -106.26941˚ 90 nm 231 nm 194° / 194° LOS ALAMOS

Altitude Profile

Advertisement - Login to hide

Weather


0- 5 10 15 20 25 30 35+ Temperature / ° C

Clouds and Precipitation
Forecast for 2017-12-11 12:00 UTC. Updated 24 minutes ago

Ground ~20,000 ft ~40,000 ft Winds

KAPA

Details ICAO KAPA (APA)
Name CENTENNIAL
Region United States
Timezone America/Denver (UTC-7.0)
Stats Elevation 5,883 ft / 1,793 m (AMSL)
Location 39.570116° -104.848132°
Runways 3
Magnetic Variation 8.130° E

METAR

KAPA 110853Z 24009KT 10SM CLR 03/M18 A3034 RMK AO2 SLP258 T00331183 55000

Decode

TAF

KAPA 110534Z 1106/1206 19007KT P6SM SCT220 FM111800 09007KT P6SM FEW120 FM120200 18007KT P6SM FEW120 BKN220

Decode

Departure Runways

ID Width Length Bearing (true) Bearing (mag) Surface Threshold Offset Overrun Length
10 75 ft / 23 m 4,791 ft / 1,460 m 111.02° 102.89° Asphalt 0 ft / 0 m 0 ft / 0 m
17L 100 ft / 30 m 10,017 ft / 3,053 m 177.97° 169.84° Asphalt 0 ft / 0 m 0 ft / 0 m
17R 77 ft / 23 m 7,014 ft / 2,138 m 177.96° 169.83° Asphalt 0 ft / 0 m 0 ft / 0 m
28 75 ft / 23 m 4,791 ft / 1,460 m 291.03° 282.90° Asphalt 0 ft / 0 m 0 ft / 0 m
35L 77 ft / 23 m 7,014 ft / 2,138 m 357.96° 349.83° Asphalt 0 ft / 0 m 0 ft / 0 m
35R 100 ft / 30 m 10,017 ft / 3,053 m 357.97° 349.84° Asphalt 0 ft / 0 m 0 ft / 0 m

KLAM

Details ICAO KLAM (LAM)
Name LOS ALAMOS
Region United States
Timezone America/Denver (UTC-7.0)
Stats Elevation 7,171 ft / 2,186 m (AMSL)
Location 35.879808° -106.269413°
Runways 1
Magnetic Variation 8.472° E

METAR

KLAM 110935Z AUTO 00000KT 10SM SCT090 01/M20 A3048 RMK AO2 T00051199

Decode

TAF

Not found

Destination Runways

ID Width Length Bearing (true) Bearing (mag) Surface Threshold Offset Overrun Length
09 113 ft / 34 m 5,538 ft / 1,688 m 102.45° 93.98° Asphalt 0 ft / 0 m 0 ft / 0 m
27 113 ft / 34 m 5,538 ft / 1,688 m 282.46° 273.99° Asphalt 0 ft / 0 m 0 ft / 0 m

Popular Alternatives